sensor_id;sensor_type;location;lat;lon;timestamp;temperature;humidity
67005;HTU21D;53920;51.094;5.902;2022-10-28T00:00:32;19.39;62.20
67005;HTU21D;53920;51.094;5.902;2022-10-28T00:03:00;19.43;61.85
67005;HTU21D;53920;51.094;5.902;2022-10-28T00:05:32;19.47;61.35
67005;HTU21D;53920;51.094;5.902;2022-10-28T00:07:58;19.52;61.12
67005;HTU21D;53920;51.094;5.902;2022-10-28T00:10:24;19.53;61.12
67005;HTU21D;53920;51.094;5.902;2022-10-28T00:12:50;19.51;60.95
67005;HTU21D;53920;51.094;5.902;2022-10-28T00:15:16;19.51;60.88
67005;HTU21D;53920;51.094;5.902;2022-10-28T00:17:42;19.45;60.97
67005;HTU21D;53920;51.094;5.902;2022-10-28T00:20:09;19.40;61.16
67005;HTU21D;53920;51.094;5.902;2022-10-28T00:22:35;19.32;61.42
67005;HTU21D;53920;51.094;5.902;2022-10-28T00:25:01;19.26;61.60
67005;HTU21D;53920;51.094;5.902;2022-10-28T00:27:28;19.18;61.82
67005;HTU21D;53920;51.094;5.902;2022-10-28T00:29:55;19.16;61.84
67005;HTU21D;53920;51.094;5.902;2022-10-28T00:32:21;19.11;61.89
67005;HTU21D;53920;51.094;5.902;2022-10-28T00:34:47;19.07;61.98
67005;HTU21D;53920;51.094;5.902;2022-10-28T01:08:13;17.75;67.17
67005;HTU21D;53920;51.094;5.902;2022-10-28T01:13:32;17.52;67.92
67005;HTU21D;53920;51.094;5.902;2022-10-28T01:35:26;16.79;70.52
67005;HTU21D;53920;51.094;5.902;2022-10-28T01:38:32;16.70;71.01
67005;HTU21D;53920;51.094;5.902;2022-10-28T01:41:13;16.60;71.43
67005;HTU21D;53920;51.094;5.902;2022-10-28T01:44:05;16.52;71.74
67005;HTU21D;53920;51.094;5.902;2022-10-28T01:49:38;16.40;72.08
67005;HTU21D;53920;51.094;5.902;2022-10-28T01:52:12;16.32;72.29
67005;HTU21D;53920;51.094;5.902;2022-10-28T01:54:42;16.28;72.48
67005;HTU21D;53920;51.094;5.902;2022-10-28T01:57:14;16.22;72.57
67005;HTU21D;53920;51.094;5.902;2022-10-28T01:59:44;16.20;72.67
67005;HTU21D;53920;51.094;5.902;2022-10-28T02:02:10;16.15;72.87
67005;HTU21D;53920;51.094;5.902;2022-10-28T02:04:36;16.08;73.09
67005;HTU21D;53920;51.094;5.902;2022-10-28T02:07:03;16.10;73.02
67005;HTU21D;53920;51.094;5.902;2022-10-28T02:12:37;15.92;73.72
67005;HTU21D;53920;51.094;5.902;2022-10-28T02:15:24;15.90;73.92
67005;HTU21D;53920;51.094;5.902;2022-10-28T02:24:24;15.85;74.13
67005;HTU21D;53920;51.094;5.902;2022-10-28T02:27:02;15.84;74.18
67005;HTU21D;53920;51.094;5.902;2022-10-28T02:29:37;15.83;74.18
67005;HTU21D;53920;51.094;5.902;2022-10-28T02:32:15;15.82;74.16
67005;HTU21D;53920;51.094;5.902;2022-10-28T02:34:48;15.81;74.15
67005;HTU21D;53920;51.094;5.902;2022-10-28T02:37:28;15.77;74.21
67005;HTU21D;53920;51.094;5.902;2022-10-28T02:40:01;15.75;74.33
67005;HTU21D;53920;51.094;5.902;2022-10-28T02:42:36;15.73;74.45
67005;HTU21D;53920;51.094;5.902;2022-10-28T02:45:14;15.77;74.45
67005;HTU21D;53920;51.094;5.902;2022-10-28T02:47:47;15.75;74.41
67005;HTU21D;53920;51.094;5.902;2022-10-28T02:50:19;15.77;74.35
67005;HTU21D;53920;51.094;5.902;2022-10-28T02:52:57;15.81;74.18
67005;HTU21D;53920;51.094;5.902;2022-10-28T02:55:31;15.80;74.15
67005;HTU21D;53920;51.094;5.902;2022-10-28T02:57:59;15.81;74.22
67005;HTU21D;53920;51.094;5.902;2022-10-28T03:00:25;15.84;74.17
67005;HTU21D;53920;51.094;5.902;2022-10-28T03:02:51;15.93;74.01
67005;HTU21D;53920;51.094;5.902;2022-10-28T03:05:17;16.20;73.28
67005;HTU21D;53920;51.094;5.902;2022-10-28T03:07:44;16.44;72.59
67005;HTU21D;53920;51.094;5.902;2022-10-28T03:10:10;16.64;71.83
67005;HTU21D;53920;51.094;5.902;2022-10-28T03:12:36;16.76;71.35
67005;HTU21D;53920;51.094;5.902;2022-10-28T03:15:02;16.78;71.16
67005;HTU21D;53920;51.094;5.902;2022-10-28T03:17:29;16.77;71.11
67005;HTU21D;53920;51.094;5.902;2022-10-28T03:19:55;16.79;71.04
67005;HTU21D;53920;51.094;5.902;2022-10-28T03:22:21;16.73;71.07
67005;HTU21D;53920;51.094;5.902;2022-10-28T03:24:47;16.72;71.16
67005;HTU21D;53920;51.094;5.902;2022-10-28T03:27:13;16.70;71.16
67005;HTU21D;53920;51.094;5.902;2022-10-28T03:29:39;16.73;71.06
67005;HTU21D;53920;51.094;5.902;2022-10-28T03:32:05;16.79;70.88
67005;HTU21D;53920;51.094;5.902;2022-10-28T03:34:31;16.81;70.64
67005;HTU21D;53920;51.094;5.902;2022-10-28T03:36:57;16.85;70.54
67005;HTU21D;53920;51.094;5.902;2022-10-28T03:39:23;16.88;70.29
67005;HTU21D;53920;51.094;5.902;2022-10-28T03:41:49;16.91;70.13
67005;HTU21D;53920;51.094;5.902;2022-10-28T03:44:17;16.88;70.12
67005;HTU21D;53920;51.094;5.902;2022-10-28T03:46:43;16.80;70.26
67005;HTU21D;53920;51.094;5.902;2022-10-28T03:49:09;16.70;70.48
67005;HTU21D;53920;51.094;5.902;2022-10-28T03:51:35;16.61;70.73
67005;HTU21D;53920;51.094;5.902;2022-10-28T03:54:01;16.49;71.09
67005;HTU21D;53920;51.094;5.902;2022-10-28T03:56:27;16.41;71.48
67005;HTU21D;53920;51.094;5.902;2022-10-28T03:58:53;16.30;71.90
67005;HTU21D;53920;51.094;5.902;2022-10-28T04:01:19;16.19;72.36
67005;HTU21D;53920;51.094;5.902;2022-10-28T04:03:48;16.10;72.63
67005;HTU21D;53920;51.094;5.902;2022-10-28T04:06:14;16.00;72.88
67005;HTU21D;53920;51.094;5.902;2022-10-28T04:08:41;15.96;73.15
67005;HTU21D;53920;51.094;5.902;2022-10-28T04:11:07;15.90;73.37
67005;HTU21D;53920;51.094;5.902;2022-10-28T04:13:34;15.89;73.54
67005;HTU21D;53920;51.094;5.902;2022-10-28T04:16:00;15.87;73.57
67005;HTU21D;53920;51.094;5.902;2022-10-28T04:18:26;15.86;73.61
67005;HTU21D;53920;51.094;5.902;2022-10-28T04:20:55;15.83;73.70
67005;HTU21D;53920;51.094;5.902;2022-10-28T04:23:21;15.86;73.74
67005;HTU21D;53920;51.094;5.902;2022-10-28T04:25:51;15.91;73.44
67005;HTU21D;53920;51.094;5.902;2022-10-28T04:28:19;15.89;73.35
67005;HTU21D;53920;51.094;5.902;2022-10-28T04:30:46;15.88;73.47
67005;HTU21D;53920;51.094;5.902;2022-10-28T04:33:12;15.84;73.62
67005;HTU21D;53920;51.094;5.902;2022-10-28T04:35:38;15.82;73.71
67005;HTU21D;53920;51.094;5.902;2022-10-28T04:38:08;15.82;73.70
67005;HTU21D;53920;51.094;5.902;2022-10-28T04:40:34;15.78;73.90
67005;HTU21D;53920;51.094;5.902;2022-10-28T04:43:00;15.77;73.96
67005;HTU21D;53920;51.094;5.902;2022-10-28T04:45:26;15.74;73.99
67005;HTU21D;53920;51.094;5.902;2022-10-28T04:47:57;15.73;74.05
67005;HTU21D;53920;51.094;5.902;2022-10-28T04:50:23;15.69;74.09
67005;HTU21D;53920;51.094;5.902;2022-10-28T04:52:49;15.68;74.19
67005;HTU21D;53920;51.094;5.902;2022-10-28T04:55:15;15.63;74.35
67005;HTU21D;53920;51.094;5.902;2022-10-28T04:57:41;15.62;74.47
67005;HTU21D;53920;51.094;5.902;2022-10-28T05:00:10;15.61;74.50
67005;HTU21D;53920;51.094;5.902;2022-10-28T05:02:36;15.59;74.44
67005;HTU21D;53920;51.094;5.902;2022-10-28T05:05:03;15.59;74.46
67005;HTU21D;53920;51.094;5.902;2022-10-28T05:07:29;15.56;74.58
67005;HTU21D;53920;51.094;5.902;2022-10-28T05:09:55;15.54;74.70
67005;HTU21D;53920;51.094;5.902;2022-10-28T05:12:21;15.52;74.86
67005;HTU21D;53920;51.094;5.902;2022-10-28T05:14:47;15.54;74.80
67005;HTU21D;53920;51.094;5.902;2022-10-28T05:17:13;15.55;74.80
67005;HTU21D;53920;51.094;5.902;2022-10-28T05:19:38;15.53;74.81
67005;HTU21D;53920;51.094;5.902;2022-10-28T05:22:04;15.54;74.90
67005;HTU21D;53920;51.094;5.902;2022-10-28T05:24:30;15.57;74.85
67005;HTU21D;53920;51.094;5.902;2022-10-28T05:26:58;15.62;74.70
67005;HTU21D;53920;51.094;5.902;2022-10-28T05:29:25;15.67;74.72
67005;HTU21D;53920;51.094;5.902;2022-10-28T05:31:51;15.72;74.63
67005;HTU21D;53920;51.094;5.902;2022-10-28T05:34:17;15.76;74.38
67005;HTU21D;53920;51.094;5.902;2022-10-28T05:36:43;15.75;74.41
67005;HTU21D;53920;51.094;5.902;2022-10-28T05:39:09;15.77;74.49
67005;HTU21D;53920;51.094;5.902;2022-10-28T05:41:37;15.78;74.40
67005;HTU21D;53920;51.094;5.902;2022-10-28T05:44:03;15.82;74.51
67005;HTU21D;53920;51.094;5.902;2022-10-28T05:46:29;15.87;74.30
67005;HTU21D;53920;51.094;5.902;2022-10-28T05:48:58;15.91;74.38
67005;HTU21D;53920;51.094;5.902;2022-10-28T05:51:24;16.01;74.44
67005;HTU21D;53920;51.094;5.902;2022-10-28T05:53:50;16.10;74.15
67005;HTU21D;53920;51.094;5.902;2022-10-28T05:56:17;16.12;74.05
67005;HTU21D;53920;51.094;5.902;2022-10-28T05:58:43;16.11;74.09
67005;HTU21D;53920;51.094;5.902;2022-10-28T06:01:09;16.08;74.19
67005;HTU21D;53920;51.094;5.902;2022-10-28T06:03:35;16.06;74.23
67005;HTU21D;53920;51.094;5.902;2022-10-28T06:06:01;16.04;74.28
67005;HTU21D;53920;51.094;5.902;2022-10-28T06:08:27;16.07;74.08
67005;HTU21D;53920;51.094;5.902;2022-10-28T06:10:54;16.01;74.12
67005;HTU21D;53920;51.094;5.902;2022-10-28T06:13:20;15.92;74.12
67005;HTU21D;53920;51.094;5.902;2022-10-28T06:15:55;15.87;74.12
67005;HTU21D;53920;51.094;5.902;2022-10-28T06:18:23;15.81;74.31
67005;HTU21D;53920;51.094;5.902;2022-10-28T06:20:57;15.75;74.36
67005;HTU21D;53920;51.094;5.902;2022-10-28T06:23:25;15.70;74.67
67005;HTU21D;53920;51.094;5.902;2022-10-28T06:25:59;15.65;74.82
67005;HTU21D;53920;51.094;5.902;2022-10-28T06:28:26;15.59;75.15
67005;HTU21D;53920;51.094;5.902;2022-10-28T06:30:52;15.56;75.31
67005;HTU21D;53920;51.094;5.902;2022-10-28T06:33:19;15.55;75.36
67005;HTU21D;53920;51.094;5.902;2022-10-28T06:35:45;15.51;75.60
67005;HTU21D;53920;51.094;5.902;2022-10-28T06:38:11;15.51;75.70
67005;HTU21D;53920;51.094;5.902;2022-10-28T06:40:37;15.54;75.66
67005;HTU21D;53920;51.094;5.902;2022-10-28T06:43:05;15.56;75.68
67005;HTU21D;53920;51.094;5.902;2022-10-28T06:45:33;15.60;75.72
67005;HTU21D;53920;51.094;5.902;2022-10-28T06:48:04;15.63;75.57
67005;HTU21D;53920;51.094;5.902;2022-10-28T06:50:32;15.71;75.44
67005;HTU21D;53920;51.094;5.902;2022-10-28T06:52:59;15.83;75.34
67005;HTU21D;53920;51.094;5.902;2022-10-28T06:55:26;15.91;74.95
67005;HTU21D;53920;51.094;5.902;2022-10-28T06:57:53;16.04;74.55
67005;HTU21D;53920;51.094;5.902;2022-10-28T07:00:19;16.10;74.35
67005;HTU21D;53920;51.094;5.902;2022-10-28T07:02:49;16.15;74.16
67005;HTU21D;53920;51.094;5.902;2022-10-28T07:05:18;16.16;74.02
67005;HTU21D;53920;51.094;5.902;2022-10-28T07:07:44;16.19;73.98
67005;HTU21D;53920;51.094;5.902;2022-10-28T07:10:10;16.24;73.95
67005;HTU21D;53920;51.094;5.902;2022-10-28T07:12:36;16.28;73.90
67005;HTU21D;53920;51.094;5.902;2022-10-28T07:15:05;16.32;73.93
67005;HTU21D;53920;51.094;5.902;2022-10-28T07:17:32;16.41;73.91
67005;HTU21D;53920;51.094;5.902;2022-10-28T07:19:58;16.49;73.65
67005;HTU21D;53920;51.094;5.902;2022-10-28T07:22:26;16.61;73.26
67005;HTU21D;53920;51.094;5.902;2022-10-28T07:24:52;16.70;72.96
67005;HTU21D;53920;51.094;5.902;2022-10-28T07:27:21;16.77;72.86
67005;HTU21D;53920;51.094;5.902;2022-10-28T07:29:47;16.81;72.72
67005;HTU21D;53920;51.094;5.902;2022-10-28T07:32:14;16.93;72.64
67005;HTU21D;53920;51.094;5.902;2022-10-28T07:34:40;16.99;72.42
67005;HTU21D;53920;51.094;5.902;2022-10-28T07:37:06;17.02;72.35
67005;HTU21D;53920;51.094;5.902;2022-10-28T07:39:32;17.00;72.41
67005;HTU21D;53920;51.094;5.902;2022-10-28T07:41:58;17.02;72.50
67005;HTU21D;53920;51.094;5.902;2022-10-28T07:44:26;17.00;72.76
67005;HTU21D;53920;51.094;5.902;2022-10-28T07:46:52;16.98;72.90
67005;HTU21D;53920;51.094;5.902;2022-10-28T07:49:22;16.99;72.99
67005;HTU21D;53920;51.094;5.902;2022-10-28T07:51:51;17.11;72.81
67005;HTU21D;53920;51.094;5.902;2022-10-28T07:54:18;17.22;72.58
67005;HTU21D;53920;51.094;5.902;2022-10-28T07:56:44;17.31;72.55
67005;HTU21D;53920;51.094;5.902;2022-10-28T07:59:09;17.48;72.32
67005;HTU21D;53920;51.094;5.902;2022-10-28T08:01:35;17.74;71.79
67005;HTU21D;53920;51.094;5.902;2022-10-28T08:04:01;18.05;71.10
67005;HTU21D;53920;51.094;5.902;2022-10-28T08:06:27;18.32;70.54
67005;HTU21D;53920;51.094;5.902;2022-10-28T08:08:55;18.62;69.77
67005;HTU21D;53920;51.094;5.902;2022-10-28T08:11:22;18.89;69.04
67005;HTU21D;53920;51.094;5.902;2022-10-28T08:13:50;19.15;68.37
67005;HTU21D;53920;51.094;5.902;2022-10-28T08:16:17;19.41;67.60
67005;HTU21D;53920;51.094;5.902;2022-10-28T08:18:43;19.67;66.82
67005;HTU21D;53920;51.094;5.902;2022-10-28T08:21:11;19.91;66.18
67005;HTU21D;53920;51.094;5.902;2022-10-28T08:23:38;20.19;65.47
67005;HTU21D;53920;51.094;5.902;2022-10-28T08:26:05;20.45;64.63
67005;HTU21D;53920;51.094;5.902;2022-10-28T08:28:31;20.76;63.73
67005;HTU21D;53920;51.094;5.902;2022-10-28T08:31:02;21.05;62.84
67005;HTU21D;53920;51.094;5.902;2022-10-28T08:33:32;21.37;61.92
67005;HTU21D;53920;51.094;5.902;2022-10-28T08:35:58;21.67;60.86
67005;HTU21D;53920;51.094;5.902;2022-10-28T08:38:24;21.99;59.87
67005;HTU21D;53920;51.094;5.902;2022-10-28T08:41:13;22.35;58.76
67005;HTU21D;53920;51.094;5.902;2022-10-28T08:49:12;23.28;55.78
67005;HTU21D;53920;51.094;5.902;2022-10-28T08:51:59;23.54;54.91
67005;HTU21D;53920;51.094;5.902;2022-10-28T08:54:43;24.19;53.13
67005;HTU21D;53920;51.094;5.902;2022-10-28T08:57:20;24.92;50.92
67005;HTU21D;53920;51.094;5.902;2022-10-28T08:59:52;25.84;48.21
67005;HTU21D;53920;51.094;5.902;2022-10-28T09:02:25;26.54;46.25
67005;HTU21D;53920;51.094;5.902;2022-10-28T09:05:26;27.15;44.72
67005;HTU21D;53920;51.094;5.902;2022-10-28T09:07:53;27.38;44.27
67005;HTU21D;53920;51.094;5.902;2022-10-28T09:10:40;27.57;43.90
67005;HTU21D;53920;51.094;5.902;2022-10-28T09:13:36;27.76;43.39
67005;HTU21D;53920;51.094;5.902;2022-10-28T09:18:56;26.65;45.71
67005;HTU21D;53920;51.094;5.902;2022-10-28T09:21:46;26.21;46.91
67005;HTU21D;53920;51.094;5.902;2022-10-28T09:24:28;26.24;46.67
67005;HTU21D;53920;51.094;5.902;2022-10-28T09:27:09;26.21;46.80
67005;HTU21D;53920;51.094;5.902;2022-10-28T09:35:02;27.34;44.61
67005;HTU21D;53920;51.094;5.902;2022-10-28T09:37:38;27.66;43.72
67005;HTU21D;53920;51.094;5.902;2022-10-28T09:40:28;27.87;43.24
67005;HTU21D;53920;51.094;5.902;2022-10-28T09:45:52;27.53;43.83
67005;HTU21D;53920;51.094;5.902;2022-10-28T09:48:26;27.85;43.06
67005;HTU21D;53920;51.094;5.902;2022-10-28T09:50:56;28.65;41.22
67005;HTU21D;53920;51.094;5.902;2022-10-28T09:53:45;29.53;39.63
67005;HTU21D;53920;51.094;5.902;2022-10-28T09:56:14;29.50;39.73
67005;HTU21D;53920;51.094;5.902;2022-10-28T09:58:45;29.09;40.68
67005;HTU21D;53920;51.094;5.902;2022-10-28T10:01:13;28.64;41.92
67005;HTU21D;53920;51.094;5.902;2022-10-28T10:03:41;28.30;42.57
67005;HTU21D;53920;51.094;5.902;2022-10-28T10:06:14;28.06;42.93
67005;HTU21D;53920;51.094;5.902;2022-10-28T10:08:41;28.82;41.67
67005;HTU21D;53920;51.094;5.902;2022-10-28T10:13:49;30.08;38.51
67005;HTU21D;53920;51.094;5.902;2022-10-28T10:16:28;30.51;37.59
67005;HTU21D;53920;51.094;5.902;2022-10-28T10:19:02;31.19;36.50
67005;HTU21D;53920;51.094;5.902;2022-10-28T10:24:35;31.37;34.82
67005;HTU21D;53920;51.094;5.902;2022-10-28T10:27:11;31.34;35.08
67005;HTU21D;53920;51.094;5.902;2022-10-28T10:29:48;31.55;34.74
67005;HTU21D;53920;51.094;5.902;2022-10-28T10:32:20;32.05;33.91
67005;HTU21D;53920;51.094;5.902;2022-10-28T10:35:23;32.81;32.15
67005;HTU21D;53920;51.094;5.902;2022-10-28T10:37:51;32.71;31.67
67005;HTU21D;53920;51.094;5.902;2022-10-28T10:40:55;32.62;31.96
67005;HTU21D;53920;51.094;5.902;2022-10-28T10:43:19;32.97;31.10
67005;HTU21D;53920;51.094;5.902;2022-10-28T10:46:13;33.15;30.48
67005;HTU21D;53920;51.094;5.902;2022-10-28T10:48:41;32.55;31.01
67005;HTU21D;53920;51.094;5.902;2022-10-28T10:51:14;31.42;32.60
67005;HTU21D;53920;51.094;5.902;2022-10-28T10:53:48;30.46;34.50
67005;HTU21D;53920;51.094;5.902;2022-10-28T10:56:24;30.40;34.80
67005;HTU21D;53920;51.094;5.902;2022-10-28T10:58:54;30.35;34.26
67005;HTU21D;53920;51.094;5.902;2022-10-28T11:01:27;30.38;34.37
67005;HTU21D;53920;51.094;5.902;2022-10-28T11:04:03;30.54;33.90
67005;HTU21D;53920;51.094;5.902;2022-10-28T11:06:40;30.99;33.29
67005;HTU21D;53920;51.094;5.902;2022-10-28T11:09:30;31.39;32.84
67005;HTU21D;53920;51.094;5.902;2022-10-28T11:11:58;31.64;32.48
67005;HTU21D;53920;51.094;5.902;2022-10-28T11:14:27;31.63;31.92
67005;HTU21D;53920;51.094;5.902;2022-10-28T11:17:00;31.57;31.01
67005;HTU21D;53920;51.094;5.902;2022-10-28T11:19:32;31.84;30.90
67005;HTU21D;53920;51.094;5.902;2022-10-28T11:28:19;31.83;30.59
67005;HTU21D;53920;51.094;5.902;2022-10-28T11:33:17;31.36;29.56
67005;HTU21D;53920;51.094;5.902;2022-10-28T11:35:47;31.20;30.70
67005;HTU21D;53920;51.094;5.902;2022-10-28T11:43:59;30.53;31.87
67005;HTU21D;53920;51.094;5.902;2022-10-28T11:46:47;30.12;32.69
67005;HTU21D;53920;51.094;5.902;2022-10-28T11:49:52;29.90;32.15
67005;HTU21D;53920;51.094;5.902;2022-10-28T12:00:58;28.63;34.86
67005;HTU21D;53920;51.094;5.902;2022-10-28T12:07:04;28.08;35.92
67005;HTU21D;53920;51.094;5.902;2022-10-28T12:12:33;28.05;35.54
67005;HTU21D;53920;51.094;5.902;2022-10-28T12:15:24;27.97;35.70
67005;HTU21D;53920;51.094;5.902;2022-10-28T12:23:16;27.39;37.21
67005;HTU21D;53920;51.094;5.902;2022-10-28T12:25:47;27.31;37.24
67005;HTU21D;53920;51.094;5.902;2022-10-28T12:28:24;27.22;37.65
67005;HTU21D;53920;51.094;5.902;2022-10-28T12:30:52;27.16;38.39
67005;HTU21D;53920;51.094;5.902;2022-10-28T12:33:38;27.29;38.14
67005;HTU21D;53920;51.094;5.902;2022-10-28T12:42:22;26.87;38.85
67005;HTU21D;53920;51.094;5.902;2022-10-28T12:44:54;27.00;38.97
67005;HTU21D;53920;51.094;5.902;2022-10-28T12:47:38;27.08;38.90
67005;HTU21D;53920;51.094;5.902;2022-10-28T12:53:17;27.70;37.95
67005;HTU21D;53920;51.094;5.902;2022-10-28T12:55:56;27.70;37.82
67005;HTU21D;53920;51.094;5.902;2022-10-28T13:01:09;27.75;37.85
67005;HTU21D;53920;51.094;5.902;2022-10-28T13:03:39;27.91;37.73
67005;HTU21D;53920;51.094;5.902;2022-10-28T13:25:21;26.34;40.10
67005;HTU21D;53920;51.094;5.902;2022-10-28T13:27:58;26.35;40.31
67005;HTU21D;53920;51.094;5.902;2022-10-28T13:30:26;26.38;40.49
67005;HTU21D;53920;51.094;5.902;2022-10-28T13:33:05;26.31;40.70
67005;HTU21D;53920;51.094;5.902;2022-10-28T13:35:32;26.21;40.92
67005;HTU21D;53920;51.094;5.902;2022-10-28T13:38:00;26.15;41.33
67005;HTU21D;53920;51.094;5.902;2022-10-28T13:43:00;26.19;41.71
67005;HTU21D;53920;51.094;5.902;2022-10-28T14:01:35;25.74;42.87
67005;HTU21D;53920;51.094;5.902;2022-10-28T14:06:48;25.56;43.38
67005;HTU21D;53920;51.094;5.902;2022-10-28T14:09:26;25.48;43.45
67005;HTU21D;53920;51.094;5.902;2022-10-28T14:12:21;25.45;43.60
67005;HTU21D;53920;51.094;5.902;2022-10-28T14:14:59;25.37;44.11
67005;HTU21D;53920;51.094;5.902;2022-10-28T14:17:34;25.36;44.08
67005;HTU21D;53920;51.094;5.902;2022-10-28T14:20:06;25.37;44.15
67005;HTU21D;53920;51.094;5.902;2022-10-28T14:22:35;25.35;44.41
67005;HTU21D;53920;51.094;5.902;2022-10-28T14:25:02;25.39;44.57
67005;HTU21D;53920;51.094;5.902;2022-10-28T14:27:48;25.33;44.59
67005;HTU21D;53920;51.094;5.902;2022-10-28T14:30:19;25.27;44.58
67005;HTU21D;53920;51.094;5.902;2022-10-28T14:35:17;25.25;45.06
67005;HTU21D;53920;51.094;5.902;2022-10-28T14:40:37;25.01;45.58
67005;HTU21D;53920;51.094;5.902;2022-10-28T14:48:55;24.65;46.31
67005;HTU21D;53920;51.094;5.902;2022-10-28T14:51:38;24.58;46.76
67005;HTU21D;53920;51.094;5.902;2022-10-28T14:54:15;24.54;46.83
67005;HTU21D;53920;51.094;5.902;2022-10-28T14:56:42;24.43;47.17
67005;HTU21D;53920;51.094;5.902;2022-10-28T15:02:15;24.18;47.54
67005;HTU21D;53920;51.094;5.902;2022-10-28T15:04:45;24.06;47.89
67005;HTU21D;53920;51.094;5.902;2022-10-28T15:07:17;24.00;47.92
67005;HTU21D;53920;51.094;5.902;2022-10-28T15:09:46;23.95;48.14
67005;HTU21D;53920;51.094;5.902;2022-10-28T15:12:20;23.91;48.28
67005;HTU21D;53920;51.094;5.902;2022-10-28T15:17:28;23.85;48.68
67005;HTU21D;53920;51.094;5.902;2022-10-28T15:20:19;23.77;48.80
67005;HTU21D;53920;51.094;5.902;2022-10-28T15:22:45;23.68;49.12
67005;HTU21D;53920;51.094;5.902;2022-10-28T15:25:17;23.66;49.35
67005;HTU21D;53920;51.094;5.902;2022-10-28T15:27:45;23.52;49.73
67005;HTU21D;53920;51.094;5.902;2022-10-28T15:30:20;23.44;49.95
67005;HTU21D;53920;51.094;5.902;2022-10-28T15:32:52;23.36;50.27
67005;HTU21D;53920;51.094;5.902;2022-10-28T15:37:58;23.23;50.90
67005;HTU21D;53920;51.094;5.902;2022-10-28T15:43:20;23.10;51.26
67005;HTU21D;53920;51.094;5.902;2022-10-28T15:45:48;23.07;51.41
67005;HTU21D;53920;51.094;5.902;2022-10-28T15:48:23;22.99;51.67
67005;HTU21D;53920;51.094;5.902;2022-10-28T15:51:12;22.92;51.86
67005;HTU21D;53920;51.094;5.902;2022-10-28T15:53:43;22.84;52.04
67005;HTU21D;53920;51.094;5.902;2022-10-28T15:56:21;22.77;52.30
67005;HTU21D;53920;51.094;5.902;2022-10-28T15:59:19;22.69;52.57
67005;HTU21D;53920;51.094;5.902;2022-10-28T16:01:45;22.57;52.87
67005;HTU21D;53920;51.094;5.902;2022-10-28T16:06:57;22.37;53.50
67005;HTU21D;53920;51.094;5.902;2022-10-28T16:09:36;22.33;53.62
67005;HTU21D;53920;51.094;5.902;2022-10-28T16:12:15;22.23;53.94
67005;HTU21D;53920;51.094;5.902;2022-10-28T16:14:55;22.13;54.26
67005;HTU21D;53920;51.094;5.902;2022-10-28T16:17:29;22.06;54.47
67005;HTU21D;53920;51.094;5.902;2022-10-28T16:19:56;22.02;54.69
67005;HTU21D;53920;51.094;5.902;2022-10-28T16:22:29;21.95;55.00
67005;HTU21D;53920;51.094;5.902;2022-10-28T16:24:55;21.88;55.40
67005;HTU21D;53920;51.094;5.902;2022-10-28T16:27:24;21.81;55.71
67005;HTU21D;53920;51.094;5.902;2022-10-28T16:29:54;21.74;55.82
67005;HTU21D;53920;51.094;5.902;2022-10-28T16:32:46;21.67;56.09
67005;HTU21D;53920;51.094;5.902;2022-10-28T16:35:19;21.59;56.56
67005;HTU21D;53920;51.094;5.902;2022-10-28T16:37:46;21.53;57.29
67005;HTU21D;53920;51.094;5.902;2022-10-28T16:40:14;21.42;57.44
67005;HTU21D;53920;51.094;5.902;2022-10-28T16:42:41;21.35;57.43
67005;HTU21D;53920;51.094;5.902;2022-10-28T16:45:17;21.32;57.45
67005;HTU21D;53920;51.094;5.902;2022-10-28T16:47:44;21.29;57.45
67005;HTU21D;53920;51.094;5.902;2022-10-28T16:50:10;21.27;57.51
67005;HTU21D;53920;51.094;5.902;2022-10-28T16:52:37;21.23;57.57
67005;HTU21D;53920;51.094;5.902;2022-10-28T16:55:05;21.21;57.71
67005;HTU21D;53920;51.094;5.902;2022-10-28T16:57:31;21.15;57.88
67005;HTU21D;53920;51.094;5.902;2022-10-28T16:59:57;21.11;58.04
67005;HTU21D;53920;51.094;5.902;2022-10-28T17:02:27;21.07;58.14
67005;HTU21D;53920;51.094;5.902;2022-10-28T17:04:54;21.04;58.32
67005;HTU21D;53920;51.094;5.902;2022-10-28T17:07:21;21.02;58.56
67005;HTU21D;53920;51.094;5.902;2022-10-28T17:09:47;21.00;58.58
67005;HTU21D;53920;51.094;5.902;2022-10-28T17:12:16;20.98;58.61
67005;HTU21D;53920;51.094;5.902;2022-10-28T17:14:42;20.98;58.64
67005;HTU21D;53920;51.094;5.902;2022-10-28T17:17:09;20.96;58.75
67005;HTU21D;53920;51.094;5.902;2022-10-28T17:19:39;20.93;58.85
67005;HTU21D;53920;51.094;5.902;2022-10-28T17:22:07;20.90;58.99
67005;HTU21D;53920;51.094;5.902;2022-10-28T17:24:34;20.89;59.09
67005;HTU21D;53920;51.094;5.902;2022-10-28T17:27:00;20.84;59.21
67005;HTU21D;53920;51.094;5.902;2022-10-28T17:29:27;20.80;59.32
67005;HTU21D;53920;51.094;5.902;2022-10-28T17:31:53;20.78;59.41
67005;HTU21D;53920;51.094;5.902;2022-10-28T17:34:19;20.79;59.38
67005;HTU21D;53920;51.094;5.902;2022-10-28T17:36:55;20.79;59.38
67005;HTU21D;53920;51.094;5.902;2022-10-28T17:39:53;20.77;59.49
67005;HTU21D;53920;51.094;5.902;2022-10-28T17:43:11;20.74;59.71
67005;HTU21D;53920;51.094;5.902;2022-10-28T17:45:37;20.69;59.93
67005;HTU21D;53920;51.094;5.902;2022-10-28T17:48:03;20.65;60.09
67005;HTU21D;53920;51.094;5.902;2022-10-28T17:50:29;20.63;60.21
67005;HTU21D;53920;51.094;5.902;2022-10-28T17:52:55;20.60;60.41
67005;HTU21D;53920;51.094;5.902;2022-10-28T17:55:22;20.56;60.79
67005;HTU21D;53920;51.094;5.902;2022-10-28T17:57:48;20.47;61.11
67005;HTU21D;53920;51.094;5.902;2022-10-28T18:00:15;20.41;61.17
67005;HTU21D;53920;51.094;5.902;2022-10-28T18:02:41;20.36;61.28
67005;HTU21D;53920;51.094;5.902;2022-10-28T18:05:07;20.32;61.45
67005;HTU21D;53920;51.094;5.902;2022-10-28T18:07:33;20.28;61.56
67005;HTU21D;53920;51.094;5.902;2022-10-28T18:09:59;20.27;61.65
67005;HTU21D;53920;51.094;5.902;2022-10-28T18:12:25;20.24;61.73
67005;HTU21D;53920;51.094;5.902;2022-10-28T18:14:51;20.24;61.76
67005;HTU21D;53920;51.094;5.902;2022-10-28T18:17:20;20.24;61.80
67005;HTU21D;53920;51.094;5.902;2022-10-28T18:19:46;20.25;61.75
67005;HTU21D;53920;51.094;5.902;2022-10-28T18:22:12;20.29;61.68
67005;HTU21D;53920;51.094;5.902;2022-10-28T18:24:38;20.29;61.74
67005;HTU21D;53920;51.094;5.902;2022-10-28T18:27:04;20.27;61.76
67005;HTU21D;53920;51.094;5.902;2022-10-28T18:29:29;20.26;61.79
67005;HTU21D;53920;51.094;5.902;2022-10-28T18:31:55;20.25;61.89
67005;HTU21D;53920;51.094;5.902;2022-10-28T18:34:21;20.22;62.00
67005;HTU21D;53920;51.094;5.902;2022-10-28T18:36:48;20.25;62.02
67005;HTU21D;53920;51.094;5.902;2022-10-28T18:39:15;20.31;61.91
67005;HTU21D;53920;51.094;5.902;2022-10-28T18:41:41;20.36;61.81
67005;HTU21D;53920;51.094;5.902;2022-10-28T18:44:13;20.44;61.73
67005;HTU21D;53920;51.094;5.902;2022-10-28T18:46:44;20.46;61.73
67005;HTU21D;53920;51.094;5.902;2022-10-28T18:49:11;20.49;61.61
67005;HTU21D;53920;51.094;5.902;2022-10-28T18:51:37;20.51;61.63
67005;HTU21D;53920;51.094;5.902;2022-10-28T18:54:03;20.54;61.50
67005;HTU21D;53920;51.094;5.902;2022-10-28T18:56:29;20.57;61.44